Time;durP1;ratioP1;P1;durP2;ratioP2;P2;SDS_P1;SDS_P2;PMS_P1;PMS_P2;Temp;Humidity;BMP_temperature;BMP_pressure;BME280_temperature;BME280_humidity;BME280_pressure;Samples;Min_cycle;Max_cycle;Signal;HPM_P1;HPM_P2
2023/06/20 00:01:57;;;;;;;10.52;2.60;;;;;;;17.18;100.00;100124.31;5024986;28;20092;-66
2023/06/20 00:04:24;;;;;;;8.68;2.40;;;;;;;17.15;100.00;100103.38;5019357;28;20056;-66
2023/06/20 00:06:51;;;;;;;8.50;2.28;;;;;;;17.22;100.00;100109.88;5017897;28;20053;-66
2023/06/20 00:09:17;;;;;;;8.00;2.20;;;;;;;17.23;100.00;100118.69;5018594;28;20054;-66
2023/06/20 00:11:44;;;;;;;8.35;2.40;;;;;;;17.15;100.00;100121.88;5025648;28;20074;-66
2023/06/20 00:14:12;;;;;;;8.32;2.08;;;;;;;17.16;100.00;100120.94;5010369;28;20080;-66
2023/06/20 00:16:39;;;;;;;9.27;2.33;;;;;;;17.30;100.00;100119.03;5025531;28;20120;-66
2023/06/20 00:19:06;;;;;;;8.02;2.00;;;;;;;17.27;100.00;100120.97;5014031;28;20072;-66
2023/06/20 00:21:32;;;;;;;5.70;1.88;;;;;;;17.32;100.00;100123.28;5011939;28;20064;-66
2023/06/20 00:23:59;;;;;;;8.95;2.05;;;;;;;17.19;100.00;100120.72;5020042;28;20060;-66
2023/06/20 00:26:26;;;;;;;7.38;2.08;;;;;;;17.02;100.00;100121.97;5010981;28;20546;-66
2023/06/20 00:28:53;;;;;;;6.22;1.77;;;;;;;17.15;100.00;100121.88;5013888;28;20132;-66
2023/06/20 00:31:20;;;;;;;9.77;2.38;;;;;;;17.23;100.00;100126.63;5028916;28;20510;-66
2023/06/20 00:33:47;;;;;;;6.63;1.83;;;;;;;17.06;100.00;100122.56;5025412;28;20058;-66
2023/06/20 00:36:13;;;;;;;9.65;2.60;;;;;;;16.96;100.00;100132.97;5016962;28;20164;-66
2023/06/20 00:38:40;;;;;;;8.43;2.25;;;;;;;16.98;100.00;100141.66;5012037;28;20072;-66
2023/06/20 00:41:07;;;;;;;9.13;2.47;;;;;;;16.99;100.00;100131.94;5026441;28;20049;-66
2023/06/20 00:43:33;;;;;;;7.10;2.20;;;;;;;17.15;100.00;100147.50;5017802;28;20056;-65
2023/06/20 00:46:00;;;;;;;6.65;2.15;;;;;;;17.17;100.00;100145.59;5010450;28;20042;-65
2023/06/20 00:48:27;;;;;;;7.80;2.08;;;;;;;17.09;100.00;100146.16;5019001;28;20049;-65
2023/06/20 00:50:54;;;;;;;7.78;1.75;;;;;;;16.96;100.00;100138.28;5027591;28;20483;-65
2023/06/20 00:53:21;;;;;;;7.80;2.17;;;;;;;16.92;100.00;100131.53;5022463;28;20091;-67
2023/06/20 00:55:49;;;;;;;6.20;2.17;;;;;;;16.87;100.00;100128.38;5024092;28;20107;-67
2023/06/20 00:58:16;;;;;;;9.40;2.10;;;;;;;16.88;100.00;100132.72;5020087;28;20400;-66
2023/06/20 01:00:42;;;;;;;8.93;2.72;;;;;;;16.86;100.00;100139.94;5010594;28;20411;-65
2023/06/20 01:03:14;;;;;;;9.75;2.10;;;;;;;16.86;100.00;100132.00;5010752;28;20094;-65
2023/06/20 01:05:53;;;;;;;9.73;2.85;;;;;;;16.95;100.00;100136.59;5022896;28;20077;-65
2023/06/20 01:08:39;;;;;;;9.30;2.78;;;;;;;16.75;100.00;100126.59;5017530;28;20618;-65
2023/06/20 01:11:16;;;;;;;8.82;2.15;;;;;;;16.87;100.00;100146.88;5024252;28;20045;-65
2023/06/20 01:13:54;;;;;;;8.85;2.10;;;;;;;16.72;100.00;100151.47;5024886;28;20532;-67
2023/06/20 01:16:42;;;;;;;8.63;2.42;;;;;;;16.63;100.00;100138.94;5029392;28;20049;-65
2023/06/20 01:19:43;;;;;;;7.20;2.20;;;;;;;16.78;100.00;100145.72;5013897;28;20099;-65
2023/06/20 01:22:33;;;;;;;9.32;2.53;;;;;;;16.69;100.00;100135.84;5011608;28;20163;-65
2023/06/20 01:25:05;;;;;;;10.77;2.75;;;;;;;16.57;100.00;100142.84;5024096;28;20061;-65
2023/06/20 01:27:38;;;;;;;10.35;2.50;;;;;;;16.44;100.00;100142.88;5021277;28;20041;-65
2023/06/20 01:30:25;;;;;;;;;;;;;;;16.59;100.00;100151.53;5021527;28;20647;-65
2023/06/20 01:32:58;;;;;;;7.18;1.90;;;;;;;16.38;100.00;100145.09;5022733;28;20239;-65
2023/06/20 01:35:30;;;;;;;6.80;2.03;;;;;;;16.42;100.00;100143.97;5009922;28;20462;-65
2023/06/20 01:38:01;;;;;;;12.68;2.67;;;;;;;16.44;100.00;100145.53;5013057;28;20054;-65
2023/06/20 01:40:29;;;;;;;17.00;3.60;;;;;;;16.48;100.00;100147.00;5016288;28;20041;-65
2023/06/20 01:42:59;;;;;;;10.23;2.88;;;;;;;16.56;100.00;100149.09;5023596;28;20085;-65
2023/06/20 01:45:28;;;;;;;11.35;3.70;;;;;;;16.41;100.00;100137.81;5008350;28;20513;-65
2023/06/20 01:47:59;;;;;;;14.45;3.22;;;;;;;16.45;100.00;100163.06;5012115;28;20092;-66
2023/06/20 01:50:29;;;;;;;9.63;3.05;;;;;;;16.42;100.00;100154.53;5019915;28;20058;-66
2023/06/20 01:52:59;;;;;;;11.82;3.28;;;;;;;16.34;100.00;100157.69;5010624;28;20078;-66
2023/06/20 01:55:28;;;;;;;10.82;2.92;;;;;;;16.48;100.00;100165.50;5017614;28;20534;-66
2023/06/20 01:57:57;;;;;;;10.10;2.78;;;;;;;16.38;100.00;100153.03;5029289;28;20132;-66
2023/06/20 02:00:26;;;;;;;7.72;2.22;;;;;;;16.41;100.00;100140.44;5019281;28;20477;-66
2023/06/20 02:02:57;;;;;;;8.55;2.33;;;;;;;16.51;100.00;100140.66;5009818;28;20555;-66
2023/06/20 02:05:27;;;;;;;9.38;2.50;;;;;;;16.39;100.00;100147.66;5013741;28;20045;-66
2023/06/20 02:07:56;;;;;;;8.50;2.80;;;;;;;16.41;100.00;100160.75;5017056;28;20120;-65
2023/06/20 02:10:24;;;;;;;7.13;2.55;;;;;;;16.27;100.00;100165.22;5025611;28;20140;-65
2023/06/20 02:12:53;;;;;;;7.43;2.60;;;;;;;16.30;100.00;100166.81;5026426;28;20101;-65
2023/06/20 02:15:22;;;;;;;9.30;2.50;;;;;;;16.14;100.00;100157.31;5032394;28;20466;-65
2023/06/20 02:17:49;;;;;;;10.82;2.95;;;;;;;16.01;100.00;100155.66;5022618;28;20541;-65
2023/06/20 02:20:16;;;;;;;9.80;2.47;;;;;;;15.96;100.00;100158.59;5013707;28;20411;-66
2023/06/20 02:22:45;;;;;;;10.70;2.80;;;;;;;16.07;100.00;100169.25;5023122;28;20041;-66
2023/06/20 02:25:20;;;;;;;9.98;3.33;;;;;;;16.18;100.00;100162.38;5025022;28;20045;-66
2023/06/20 02:27:50;;;;;;;10.65;3.10;;;;;;;16.10;100.00;100161.13;5025007;28;20144;-66
2023/06/20 02:30:20;;;;;;;10.90;3.08;;;;;;;16.13;100.00;100162.72;5029663;28;20367;-66
2023/06/20 02:32:47;;;;;;;9.77;2.80;;;;;;;16.06;100.00;100162.28;5020188;28;20132;-66
2023/06/20 02:35:16;;;;;;;10.52;2.47;;;;;;;16.05;100.00;100160.59;5023787;28;20053;-66
2023/06/20 02:37:44;;;;;;;8.93;2.55;;;;;;;16.23;100.00;100162.91;5017524;28;20086;-66
2023/06/20 02:40:11;;;;;;;7.40;2.10;;;;;;;16.28;100.00;100163.44;5023152;28;20049;-66
2023/06/20 02:42:38;;;;;;;6.47;2.03;;;;;;;16.35;100.00;100158.56;5029537;28;20054;-66
2023/06/20 02:45:05;;;;;;;10.52;2.30;;;;;;;16.27;100.00;100159.09;5012374;28;20064;-66
2023/06/20 02:47:57;;;;;;;8.32;2.55;;;;;;;16.02;100.00;100162.59;5015271;28;20059;-66
2023/06/20 02:50:31;;;;;;;15.82;3.00;;;;;;;15.80;100.00;100161.44;5030011;28;20085;-66
2023/06/20 02:53:37;;;;;;;10.85;3.10;;;;;;;15.71;100.00;100147.06;5028080;28;20053;-66
2023/06/20 02:56:12;;;;;;;8.25;2.72;;;;;;;15.68;100.00;100163.09;5011943;28;20136;-66
2023/06/20 02:58:44;;;;;;;10.52;2.63;;;;;;;15.55;100.00;100162.25;5031819;28;20076;-66
2023/06/20 03:01:18;;;;;;;9.60;2.95;;;;;;;15.52;100.00;100171.19;5029861;28;20045;-66
2023/06/20 03:03:45;;;;;;;7.70;2.50;;;;;;;15.55;100.00;100173.63;5019451;28;20058;-66
2023/06/20 03:06:15;;;;;;;8.05;2.40;;;;;;;15.75;100.00;100164.41;5029096;28;20044;-66
2023/06/20 03:08:44;;;;;;;11.90;3.53;;;;;;;15.74;100.00;100149.53;5024223;28;20054;-66
2023/06/20 03:11:11;;;;;;;8.80;2.55;;;;;;;15.77;100.00;100171.38;5027612;28;20061;-66
2023/06/20 03:13:38;;;;;;;12.38;3.25;;;;;;;15.60;100.00;100175.97;5031717;28;20084;-66
2023/06/20 03:16:09;;;;;;;9.25;2.60;;;;;;;15.65;100.00;100170.38;5031725;28;20046;-66
2023/06/20 03:18:37;;;;;;;13.15;3.20;;;;;;;15.37;100.00;100159.06;5030613;28;20111;-66
2023/06/20 03:21:04;;;;;;;8.75;3.35;;;;;;;15.52;100.00;100179.13;5020321;28;20057;-66
2023/06/20 03:23:49;;;;;;;8.93;2.67;;;;;;;15.62;100.00;100178.53;5015007;28;20049;-66
2023/06/20 03:26:16;;;;;;;10.35;3.05;;;;;;;15.61;100.00;100172.38;5025169;28;20049;-66
2023/06/20 03:28:42;;;;;;;10.07;2.80;;;;;;;15.80;100.00;100176.47;5021902;28;20403;-66
2023/06/20 03:31:09;;;;;;;11.15;2.70;;;;;;;15.82;100.00;100171.91;5022070;28;20059;-66
2023/06/20 03:33:36;;;;;;;4.78;1.70;;;;;;;16.00;100.00;100169.78;5024770;28;20503;-66
2023/06/20 03:36:03;;;;;;;6.53;2.13;;;;;;;15.92;100.00;100157.97;5021491;28;20437;-66
2023/06/20 03:38:29;;;;;;;9.55;2.28;;;;;;;15.81;100.00;100165.78;5030860;28;20092;-66
2023/06/20 03:40:56;;;;;;;7.93;2.22;;;;;;;15.87;100.00;100169.81;5012272;28;20061;-66
2023/06/20 03:43:23;;;;;;;6.82;2.38;;;;;;;15.71;100.00;100175.25;5019007;28;20048;-66
2023/06/20 03:45:49;;;;;;;8.65;2.72;;;;;;;15.71;100.00;100162.06;5031392;28;20049;-66
2023/06/20 03:48:19;;;;;;;9.75;2.33;;;;;;;15.85;100.00;100166.44;5020914;28;20044;-66
2023/06/20 03:50:45;;;;;;;8.45;1.77;;;;;;;15.88;100.00;100166.19;5017310;28;20088;-66
2023/06/20 03:53:12;;;;;;;8.57;2.40;;;;;;;16.08;100.00;100167.47;5024698;28;20509;-67
2023/06/20 03:55:39;;;;;;;9.35;2.40;;;;;;;16.15;100.00;100181.94;5028340;28;20055;-67
2023/06/20 03:58:06;;;;;;;6.63;1.95;;;;;;;16.12;100.00;100180.34;5020935;28;20068;-67
2023/06/20 04:00:33;;;;;;;7.18;1.88;;;;;;;16.04;100.00;100195.03;5017316;28;20050;-66
2023/06/20 04:03:00;;;;;;;8.73;2.05;;;;;;;16.06;100.00;100199.25;5025537;28;20089;-66
2023/06/20 04:05:27;;;;;;;7.82;2.08;;;;;;;16.19;100.00;100188.69;5014307;28;20505;-66
2023/06/20 04:07:55;;;;;;;6.97;2.17;;;;;;;16.20;100.00;100192.16;5018818;28;20090;-67
2023/06/20 04:10:22;;;;;;;5.40;1.95;;;;;;;16.24;100.00;100183.09;5012732;28;20457;-66
2023/06/20 04:12:49;;;;;;;8.15;2.55;;;;;;;16.41;100.00;100195.09;5022030;28;20054;-66
2023/06/20 04:15:15;;;;;;;7.82;2.25;;;;;;;17.25;100.00;100193.47;5017412;28;20153;-66
2023/06/20 04:17:42;;;;;;;6.13;2.20;;;;;;;17.56;100.00;100189.38;5025148;28;20049;-67
2023/06/20 04:20:11;;;;;;;8.25;2.78;;;;;;;17.90;100.00;100196.56;5011835;28;20045;-67
2023/06/20 04:22:46;;;;;;;7.32;2.35;;;;;;;18.24;100.00;100186.00;5024526;28;20099;-67
2023/06/20 04:25:14;;;;;;;7.22;2.13;;;;;;;18.40;100.00;100179.38;5026381;28;20103;-66
2023/06/20 04:27:41;;;;;;;5.93;1.90;;;;;;;18.55;100.00;100193.22;5025660;28;20400;-67
2023/06/20 04:30:08;;;;;;;7.78;2.28;;;;;;;18.88;100.00;100188.84;5011409;28;20058;-67
2023/06/20 04:32:36;;;;;;;10.77;2.50;;;;;;;19.00;100.00;100192.34;5010327;28;20516;-67
2023/06/20 04:35:04;;;;;;;8.32;2.35;;;;;;;19.33;100.00;100172.75;5028660;28;20076;-67
2023/06/20 04:37:31;;;;;;;9.65;2.13;;;;;;;19.48;100.00;100193.72;5027429;28;20052;-66
2023/06/20 04:39:57;;;;;;;11.75;2.80;;;;;;;20.15;100.00;100189.81;5030671;28;20073;-67
2023/06/20 04:42:24;;;;;;;9.63;2.08;;;;;;;20.09;100.00;100188.50;5030214;28;20045;-66
2023/06/20 04:44:51;;;;;;;8.25;2.10;;;;;;;20.38;100.00;100184.28;5015239;28;20168;-66
2023/06/20 04:47:17;;;;;;;7.20;1.88;;;;;;;20.44;100.00;100203.22;5015747;28;20056;-66
2023/06/20 04:49:44;;;;;;;6.55;1.67;;;;;;;20.47;100.00;100204.78;5021360;28;20053;-66
2023/06/20 04:52:11;;;;;;;5.47;1.48;;;;;;;20.70;100.00;100204.56;5026451;28;20129;-66
2023/06/20 04:54:38;;;;;;;8.35;1.98;;;;;;;20.54;100.00;100203.25;5016202;28;20137;-66
2023/06/20 04:57:05;;;;;;;5.75;1.80;;;;;;;20.45;100.00;100206.69;5020143;28;20046;-67
2023/06/20 04:59:31;;;;;;;7.30;1.77;;;;;;;19.53;100.00;100212.75;5020945;28;20052;-67
2023/06/20 05:01:58;;;;;;;7.90;1.92;;;;;;;19.03;100.00;100205.31;5010574;28;20603;-67
2023/06/20 05:04:25;;;;;;;7.95;2.17;;;;;;;18.50;100.00;100208.66;5023698;28;20050;-67
2023/06/20 05:06:52;;;;;;;6.07;1.92;;;;;;;18.36;100.00;100208.88;5019261;28;20456;-66
2023/06/20 05:09:18;;;;;;;10.63;2.40;;;;;;;18.12;100.00;100212.50;5015022;28;20080;-67
2023/06/20 05:11:45;;;;;;;8.55;2.30;;;;;;;18.36;100.00;100204.44;5021695;28;20049;-67
2023/06/20 05:14:12;;;;;;;8.77;2.65;;;;;;;18.01;100.00;100202.75;5028685;28;20060;-66
2023/06/20 05:16:38;;;;;;;7.10;1.90;;;;;;;18.04;100.00;100204.28;5024095;28;20080;-66
2023/06/20 05:19:05;;;;;;;8.20;2.45;;;;;;;17.93;100.00;100210.41;5010154;28;20422;-66
2023/06/20 05:21:32;;;;;;;13.35;2.25;;;;;;;18.18;100.00;100212.03;5022112;28;20053;-66
2023/06/20 05:23:58;;;;;;;7.32;2.40;;;;;;;18.88;100.00;100215.38;5029861;28;20406;-66
2023/06/20 05:26:26;;;;;;;10.18;2.70;;;;;;;18.78;100.00;100215.22;5028223;28;20513;-66
2023/06/20 05:28:53;;;;;;;8.38;2.50;;;;;;;19.26;100.00;100214.06;5021692;28;20165;-66
2023/06/20 05:31:19;;;;;;;8.45;2.20;;;;;;;19.60;100.00;100210.41;5011441;28;20471;-65
2023/06/20 05:33:47;;;;;;;8.40;2.35;;;;;;;20.02;100.00;100216.56;5024583;28;20053;-65
2023/06/20 05:36:14;;;;;;;8.07;2.40;;;;;;;20.13;100.00;100214.81;5024837;28;20053;-66
2023/06/20 05:38:40;;;;;;;7.18;2.30;;;;;;;20.13;100.00;100214.81;5041142;28;20080;-66
2023/06/20 05:41:07;;;;;;;9.02;2.88;;;;;;;20.44;100.00;100211.19;5026560;28;20078;-65
2023/06/20 05:43:34;;;;;;;7.93;2.10;;;;;;;20.61;100.00;100212.41;5027003;28;20050;-65
2023/06/20 05:46:00;;;;;;;5.65;1.70;;;;;;;20.98;100.00;100205.63;5019120;28;20045;-67
2023/06/20 05:48:27;;;;;;;11.18;1.95;;;;;;;21.27;100.00;100213.63;5028337;28;20505;-65
2023/06/20 05:50:54;;;;;;;9.57;2.00;;;;;;;21.22;100.00;100218.53;5024730;28;20053;-67
2023/06/20 05:53:22;;;;;;;9.43;2.42;;;;;;;20.94;100.00;100226.34;5034573;28;20060;-66
2023/06/20 05:55:50;;;;;;;6.35;1.80;;;;;;;21.20;100.00;100216.00;5016525;28;20534;-67
2023/06/20 05:58:18;;;;;;;8.07;3.08;;;;;;;20.62;100.00;100223.88;5028844;28;20089;-66
2023/06/20 06:00:45;;;;;;;8.50;2.33;;;;;;;21.77;100.00;100233.97;5019838;28;20045;-66
2023/06/20 06:03:13;;;;;;;7.63;1.92;;;;;;;22.00;100.00;100229.16;5016607;28;20056;-66
2023/06/20 06:05:40;;;;;;;8.23;2.10;;;;;;;22.03;100.00;100228.00;5035175;28;20156;-67
2023/06/20 06:08:07;;;;;;;6.32;1.77;;;;;;;22.22;100.00;100243.94;5022039;28;20049;-66
2023/06/20 06:10:34;;;;;;;11.05;2.15;;;;;;;22.78;100.00;100238.72;5018182;28;20141;-66
2023/06/20 06:13:01;;;;;;;8.73;2.65;;;;;;;22.63;100.00;100254.34;5043507;28;20132;-66
2023/06/20 06:15:28;;;;;;;8.68;2.03;;;;;;;22.44;100.00;100257.97;5021709;28;20069;-66
2023/06/20 06:17:55;;;;;;;8.10;2.17;;;;;;;21.76;100.00;100269.56;5034279;28;20449;-66
2023/06/20 06:20:23;;;;;;;6.75;1.80;;;;;;;21.48;100.00;100260.59;5030985;28;20051;-66
2023/06/20 06:22:51;;;;;;;9.80;2.40;;;;;;;21.70;100.00;100270.97;5020900;28;20478;-66
2023/06/20 06:25:18;;;;;;;7.43;2.20;;;;;;;22.34;100.00;100258.81;5014688;28;20055;-66
2023/06/20 06:27:45;;;;;;;9.23;2.05;;;;;;;23.04;100.00;100254.88;5015899;28;20045;-66
2023/06/20 06:30:14;;;;;;;7.47;2.00;;;;;;;23.13;100.00;100262.00;5020976;28;20056;-67
2023/06/20 06:32:43;;;;;;;6.30;2.08;;;;;;;23.09;100.00;100266.78;5027697;28;20053;-67
2023/06/20 06:35:12;;;;;;;9.05;1.92;;;;;;;23.49;100.00;100268.19;5034431;28;20423;-67
2023/06/20 06:37:40;;;;;;;7.10;1.75;;;;;;;22.53;100.00;100243.75;5030312;28;20045;-67
2023/06/20 06:40:09;;;;;;;7.88;1.88;;;;;;;22.02;100.00;100269.81;5036424;28;20057;-67
2023/06/20 06:42:36;;;;;;;7.13;2.00;;;;;;;21.84;100.00;100272.38;5032001;28;20391;-67
2023/06/20 06:45:04;;;;;;;7.20;1.75;;;;;;;21.68;100.00;100256.13;5034157;28;20085;-67
2023/06/20 06:47:30;;;;;;;9.95;2.42;;;;;;;21.21;100.00;100262.09;5030445;28;20053;-67
2023/06/20 06:49:57;;;;;;;8.50;2.28;;;;;;;21.20;100.00;100257.78;5034113;28;20099;-67
2023/06/20 06:52:24;;;;;;;10.77;2.33;;;;;;;21.17;100.00;100255.38;5028615;28;20471;-67
2023/06/20 06:54:51;;;;;;;7.10;2.15;;;;;;;20.57;100.00;100257.97;5033159;28;20507;-67
2023/06/20 06:57:17;;;;;;;5.90;1.80;;;;;;;20.59;100.00;100254.22;5032344;28;20103;-66
2023/06/20 06:59:44;;;;;;;9.50;2.28;;;;;;;20.57;100.00;100256.16;5030622;28;20057;-66
2023/06/20 07:02:11;;;;;;;8.25;2.35;;;;;;;20.61;100.00;100262.03;5029174;28;20053;-66
2023/06/20 07:04:38;;;;;;;9.73;2.33;;;;;;;20.40;100.00;100262.97;5026338;28;20149;-66
2023/06/20 07:07:05;;;;;;;7.45;2.67;;;;;;;20.19;100.00;100260.31;5027559;28;20049;-66
2023/06/20 07:09:32;;;;;;;7.38;2.33;;;;;;;20.61;100.00;100254.06;5026540;28;20045;-66
2023/06/20 07:11:59;;;;;;;9.95;2.22;;;;;;;20.91;100.00;100263.88;5030319;28;20046;-66
2023/06/20 07:14:26;;;;;;;8.57;2.42;;;;;;;20.90;100.00;100261.34;5032378;28;20128;-66
2023/06/20 07:16:53;;;;;;;11.02;3.05;;;;;;;20.89;100.00;100265.81;5031677;28;20069;-66
2023/06/20 07:19:31;;;;;;;7.32;2.40;;;;;;;21.25;100.00;100279.50;5031584;28;20455;-66
2023/06/20 07:21:58;;;;;;;9.52;2.85;;;;;;;20.93;100.00;100269.91;5031823;28;20061;-66
2023/06/20 07:24:24;;;;;;;8.90;2.50;;;;;;;21.55;100.00;100267.09;5031074;28;20053;-66
2023/06/20 07:26:51;;;;;;;8.80;2.65;;;;;;;22.12;100.00;100262.66;5019481;28;20060;-66
2023/06/20 07:29:18;;;;;;;9.32;2.50;;;;;;;22.05;100.00;100268.72;5026004;28;20056;-66
2023/06/20 07:31:45;;;;;;;9.45;2.50;;;;;;;21.97;100.00;100258.75;5019718;28;20053;-67
2023/06/20 07:34:11;;;;;;;7.68;2.00;;;;;;;22.50;100.00;100246.69;5030674;28;20045;-66
2023/06/20 07:36:38;;;;;;;8.95;2.30;;;;;;;22.74;100.00;100247.00;5031540;28;20426;-66
2023/06/20 07:39:06;;;;;;;11.35;2.47;;;;;;;22.31;100.00;100245.81;5029547;28;20041;-66
2023/06/20 07:41:32;;;;;;;9.65;2.60;;;;;;;22.37;100.00;100255.03;5031535;28;20447;-66
2023/06/20 07:43:59;;;;;;;7.70;2.78;;;;;;;21.96;100.00;100260.59;5029220;28;20348;-66
2023/06/20 07:46:26;;;;;;;6.53;2.05;;;;;;;21.95;100.00;100268.72;5027892;28;20052;-66
2023/06/20 07:48:53;;;;;;;8.48;2.55;;;;;;;21.91;100.00;100268.16;5026968;28;20116;-66
2023/06/20 07:51:20;;;;;;;8.73;2.17;;;;;;;21.73;100.00;100278.69;5012781;28;20049;-66
2023/06/20 07:53:47;;;;;;;8.15;2.42;;;;;;;21.89;100.00;100270.13;5030159;28;20067;-66
2023/06/20 07:56:14;;;;;;;8.55;2.30;;;;;;;22.11;100.00;100279.63;5031515;28;20046;-66
2023/06/20 07:58:41;;;;;;;9.32;2.53;;;;;;;22.56;100.00;100286.97;5030099;28;20049;-66
2023/06/20 08:01:08;;;;;;;7.63;2.65;;;;;;;22.07;100.00;100283.56;5027450;28;20096;-66
2023/06/20 08:03:35;;;;;;;7.32;2.08;;;;;;;22.46;100.00;100280.81;5024317;28;20108;-66
2023/06/20 08:06:03;;;;;;;10.63;2.90;;;;;;;22.06;100.00;100281.03;5027780;28;20491;-66
2023/06/20 08:08:29;;;;;;;10.00;2.90;;;;;;;22.02;100.00;100282.31;5028699;28;20037;-70
2023/06/20 08:10:56;;;;;;;8.55;2.25;;;;;;;21.81;100.00;100278.00;5030260;28;20056;-69
2023/06/20 08:13:25;;;;;;;9.48;2.25;;;;;;;21.76;100.00;100280.22;5023873;28;20414;-69
2023/06/20 08:15:52;;;;;;;8.80;3.00;;;;;;;22.05;100.00;100266.88;5024424;28;20443;-69
2023/06/20 08:18:18;;;;;;;8.65;2.25;;;;;;;21.76;100.00;100257.13;5030928;28;20052;-69
2023/06/20 08:20:47;;;;;;;10.02;2.60;;;;;;;22.05;100.00;100255.38;5027755;28;20060;-69
2023/06/20 08:23:21;;;;;;;10.55;2.80;;;;;;;22.02;100.00;100247.66;5022169;28;20153;-69
2023/06/20 08:25:48;;;;;;;10.30;2.80;;;;;;;21.71;100.00;100255.84;5025491;28;20057;-69
2023/06/20 08:28:15;;;;;;;10.43;3.45;;;;;;;21.51;100.00;100253.19;5019663;28;20052;-69
2023/06/20 08:30:41;;;;;;;12.65;2.90;;;;;;;21.98;100.00;100258.59;5018287;28;20060;-69
2023/06/20 08:33:08;;;;;;;12.95;3.80;;;;;;;21.94;100.00;100261.72;5016527;28;20127;-70
2023/06/20 08:35:35;;;;;;;12.55;3.30;;;;;;;21.78;100.00;100262.31;5020204;28;20056;-69
2023/06/20 08:38:02;;;;;;;10.88;2.92;;;;;;;22.03;100.00;100260.84;5026680;28;20050;-70
2023/06/20 08:40:30;;;;;;;9.25;3.22;;;;;;;22.09;100.00;100257.59;5017377;28;20053;-69
2023/06/20 08:42:58;;;;;;;11.15;2.90;;;;;;;22.01;100.00;100265.50;5023996;28;20414;-69
2023/06/20 08:45:24;;;;;;;12.45;3.25;;;;;;;22.25;100.00;100258.84;5029594;28;20081;-69
2023/06/20 08:47:51;;;;;;;10.35;3.25;;;;;;;22.33;100.00;100259.00;5030313;28;20483;-69
2023/06/20 08:50:18;;;;;;;10.20;3.28;;;;;;;21.63;100.00;100266.38;5035842;28;20417;-70
2023/06/20 08:52:49;;;;;;;8.32;3.08;;;;;;;22.18;100.00;100266.56;5025064;28;20096;-70
2023/06/20 08:55:16;;;;;;;8.80;3.08;;;;;;;21.46;100.00;100268.75;5028862;28;20072;-70
2023/06/20 08:57:46;;;;;;;16.38;3.47;;;;;;;21.37;100.00;100273.06;5029860;28;20045;-70
2023/06/20 09:00:17;;;;;;;11.35;3.70;;;;;;;21.68;100.00;100270.28;5024901;28;20046;-69
2023/06/20 09:02:44;;;;;;;12.25;3.25;;;;;;;21.71;100.00;100259.34;5027552;28;20076;-69
2023/06/20 09:05:11;;;;;;;11.95;3.33;;;;;;;22.02;100.00;100255.66;5014374;28;20077;-70
2023/06/20 09:07:39;;;;;;;10.32;3.25;;;;;;;22.05;100.00;100266.88;5015273;28;21939;-70
2023/06/20 09:10:07;;;;;;;8.95;3.10;;;;;;;21.76;100.00;100264.25;5030082;28;20053;-70
2023/06/20 09:12:53;;;;;;;10.38;3.17;;;;;;;21.78;100.00;100270.31;5027793;28;20056;-70
2023/06/20 09:15:22;;;;;;;13.60;2.65;;;;;;;21.69;100.00;100257.81;5026225;28;20077;-69
2023/06/20 09:18:01;;;;;;;13.48;3.30;;;;;;;21.53;100.00;100272.53;5028462;28;20463;-69
2023/06/20 09:20:30;;;;;;;10.75;3.45;;;;;;;20.97;100.00;100273.13;5026360;28;20092;-69
2023/06/20 09:22:58;;;;;;;12.85;3.72;;;;;;;20.90;100.00;100270.16;5028902;28;20060;-70
2023/06/20 09:25:27;;;;;;;10.32;2.63;;;;;;;20.93;100.00;100283.22;5020644;28;20402;-69
2023/06/20 09:27:55;;;;;;;11.50;2.92;;;;;;;21.48;100.00;100287.25;5027351;28;20088;-71
2023/06/20 09:30:22;;;;;;;12.68;3.28;;;;;;;21.99;100.00;100294.97;5027076;28;20085;-69
2023/06/20 09:32:52;;;;;;;9.38;3.05;;;;;;;21.38;100.00;100289.88;5029409;28;20515;-70
2023/06/20 09:35:20;;;;;;;8.50;2.75;;;;;;;21.83;100.00;100291.19;5026446;28;20095;-70
2023/06/20 09:37:49;;;;;;;10.45;2.60;;;;;;;22.59;100.00;100288.50;5028990;28;20049;-68
2023/06/20 09:40:17;;;;;;;11.02;2.80;;;;;;;22.34;100.00;100296.16;5027292;28;20095;-70
2023/06/20 09:42:46;;;;;;;8.48;2.83;;;;;;;21.85;100.00;100287.41;5029056;28;20061;-70
2023/06/20 09:45:16;;;;;;;7.55;2.50;;;;;;;22.34;100.00;100287.31;5017261;28;20053;-70
2023/06/20 09:47:45;;;;;;;10.60;2.70;;;;;;;22.14;100.00;100291.84;5021802;28;20077;-70
2023/06/20 09:50:16;;;;;;;8.75;3.38;;;;;;;21.59;100.00;100290.63;5030026;28;20049;-70
2023/06/20 09:52:46;;;;;;;8.93;2.55;;;;;;;21.86;100.00;100310.38;5024172;28;20086;-68
2023/06/20 09:55:15;;;;;;;11.70;3.22;;;;;;;21.80;100.00;100294.97;5025154;28;20053;-69
2023/06/20 09:57:47;;;;;;;10.25;2.85;;;;;;;21.47;100.00;100299.72;5025934;28;20077;-70
2023/06/20 10:00:15;;;;;;;10.02;2.67;;;;;;;21.90;100.00;100303.81;5023537;28;20053;-69
2023/06/20 10:02:47;;;;;;;10.45;2.92;;;;;;;21.54;100.00;100300.84;5022978;28;20053;-70
2023/06/20 10:05:19;;;;;;;7.80;3.00;;;;;;;21.36;100.00;100302.50;5028399;28;20057;-69
2023/06/20 10:07:48;;;;;;;9.40;2.50;;;;;;;21.45;100.00;100306.97;5024521;28;20054;-69
2023/06/20 10:10:16;;;;;;;13.15;3.22;;;;;;;21.44;100.00;100307.94;5026324;28;20518;-69
2023/06/20 10:12:45;;;;;;;9.63;2.85;;;;;;;21.39;100.00;100305.72;5027924;28;20050;-69
2023/06/20 10:15:16;;;;;;;8.95;2.90;;;;;;;21.17;100.00;100308.63;5027725;28;20045;-69
2023/06/20 10:17:47;;;;;;;8.10;2.42;;;;;;;20.97;100.00;100297.09;5029369;28;20061;-70
2023/06/20 10:20:31;;;;;;;9.45;3.28;;;;;;;20.53;100.00;100305.28;5025333;28;20050;-71
2023/06/20 10:23:07;;;;;;;8.43;2.72;;;;;;;20.72;100.00;100293.91;5024636;28;20053;-70
2023/06/20 10:25:47;;;;;;;7.65;2.70;;;;;;;20.92;100.00;100288.66;5017553;28;20054;-70
2023/06/20 10:28:18;;;;;;;8.90;2.67;;;;;;;21.15;100.00;100287.44;5028296;28;20077;-71
2023/06/20 10:30:57;;;;;;;11.40;3.20;;;;;;;21.21;100.00;100292.25;5031654;28;20553;-71
2023/06/20 10:33:39;;;;;;;9.07;3.15;;;;;;;21.07;100.00;100292.63;5027015;28;20479;-70
2023/06/20 10:36:11;;;;;;;9.77;2.92;;;;;;;21.40;100.00;100293.25;5033567;28;20049;-70
2023/06/20 10:38:59;;;;;;;7.90;2.47;;;;;;;21.88;100.00;100296.91;5023839;28;20136;-71
2023/06/20 10:41:28;;;;;;;11.38;3.28;;;;;;;21.27;100.00;100303.31;5027425;28;20059;-71
2023/06/20 10:43:59;;;;;;;9.60;2.92;;;;;;;21.68;100.00;100301.44;5025959;28;20450;-71
2023/06/20 10:46:38;;;;;;;11.60;3.60;;;;;;;21.58;100.00;100304.94;5019168;28;20434;-71
2023/06/20 10:49:10;;;;;;;9.48;2.75;;;;;;;21.64;100.00;100303.53;5032352;28;20482;-71
2023/06/20 10:51:47;;;;;;;10.30;3.17;;;;;;;21.67;100.00;100305.06;5031376;28;20053;-71
2023/06/20 10:54:15;;;;;;;10.00;2.60;;;;;;;21.77;100.00;100309.41;5031207;28;20045;-71
2023/06/20 10:56:44;;;;;;;9.25;2.72;;;;;;;21.80;100.00;100302.97;5030862;28;20631;-71
2023/06/20 10:59:12;;;;;;;9.38;2.72;;;;;;;21.96;100.00;100292.56;5031852;28;20697;-71
2023/06/20 11:01:39;;;;;;;10.23;3.33;;;;;;;21.33;100.00;100292.13;5027158;28;20107;-71
2023/06/20 11:04:08;;;;;;;9.10;2.65;;;;;;;21.75;100.00;100294.56;5030274;28;20053;-70
2023/06/20 11:06:35;;;;;;;9.70;2.70;;;;;;;21.53;100.00;100288.53;5036475;28;20079;-70
2023/06/20 11:09:02;;;;;;;7.25;2.83;;;;;;;21.63;100.00;100303.66;5031915;28;20111;-71
2023/06/20 11:11:34;;;;;;;11.38;3.38;;;;;;;21.85;100.00;100299.88;5027155;28;20046;-72
2023/06/20 11:14:13;;;;;;;10.68;3.00;;;;;;;21.71;100.00;100301.13;5029623;28;20077;-70
2023/06/20 11:16:41;;;;;;;10.65;3.03;;;;;;;21.57;100.00;100284.59;5027793;28;20065;-70
2023/06/20 11:19:09;;;;;;;7.38;2.13;;;;;;;21.59;100.00;100295.94;5020366;28;20476;-70
2023/06/20 11:21:55;;;;;;;7.35;2.83;;;;;;;21.10;100.00;100284.34;5021864;28;20049;-70
2023/06/20 11:24:22;;;;;;;10.27;3.05;;;;;;;21.31;100.00;100281.59;5024693;28;20095;-71